Time;durP1;ratioP1;P1;durP2;ratioP2;P2;SDS_P1;SDS_P2;PMS_P1;PMS_P2;Temp;Humidity;BMP_temperature;BMP_pressure;BME280_temperature;BME280_humidity;BME280_pressure;Samples;Min_cycle;Max_cycle;Signal;HPM_P1;HPM_P2
2024/02/05 00:00:19;;;;;;;15.88;4.10;;;13.30;99.90;;;;;;7378770;19;20082;-73
2024/02/05 00:02:47;;;;;;;21.35;4.78;;;13.40;99.90;;;;;;7403392;19;20015;-74
2024/02/05 00:05:16;;;;;;;20.17;4.35;;;13.20;99.90;;;;;;7381790;19;20260;-74
2024/02/05 00:07:45;;;;;;;27.20;4.78;;;13.20;99.90;;;;;;7380694;19;20074;-74
2024/02/05 00:10:16;;;;;;;23.30;4.68;;;13.30;99.90;;;;;;7382138;19;20025;-75
2024/02/05 00:12:45;;;;;;;32.28;5.07;;;13.30;99.90;;;;;;7383380;19;20070;-75
2024/02/05 00:15:14;;;;;;;21.40;4.00;;;13.40;99.90;;;;;;7378706;19;20044;-74
2024/02/05 00:17:43;;;;;;;22.38;4.22;;;13.40;99.90;;;;;;7402209;19;20010;-73
2024/02/05 00:20:13;;;;;;;26.00;4.13;;;13.40;99.90;;;;;;7379247;19;20250;-73
2024/02/05 00:22:42;;;;;;;22.08;4.38;;;13.30;99.90;;;;;;7382905;19;20066;-73
2024/02/05 00:25:11;;;;;;;17.95;4.13;;;13.20;99.90;;;;;;7380546;19;20014;-73
2024/02/05 00:27:43;;;;;;;29.60;5.10;;;13.30;99.90;;;;;;7381604;19;20222;-73
2024/02/05 00:30:13;;;;;;;14.98;4.18;;;13.30;99.90;;;;;;7379606;19;20002;-73
2024/02/05 00:32:41;;;;;;;13.68;3.83;;;13.30;99.90;;;;;;7403645;19;20006;-73
2024/02/05 00:35:12;;;;;;;19.40;3.90;;;13.30;99.90;;;;;;7379589;19;20078;-73
2024/02/05 00:37:44;;;;;;;17.58;4.45;;;13.30;99.90;;;;;;7379696;19;20348;-73
2024/02/05 00:40:13;;;;;;;14.07;3.95;;;13.30;99.90;;;;;;7380984;19;20017;-74
2024/02/05 00:42:44;;;;;;;11.27;3.53;;;13.30;99.90;;;;;;7379738;19;20006;-74
2024/02/05 00:45:13;;;;;;;25.30;4.18;;;13.40;99.90;;;;;;7379453;19;20075;-74
2024/02/05 00:47:42;;;;;;;21.20;3.75;;;13.40;99.90;;;;;;7401203;19;20010;-74
2024/02/05 00:50:11;;;;;;;19.02;4.18;;;13.30;99.90;;;;;;7377995;19;20013;-73
2024/02/05 00:52:40;;;;;;;21.38;4.20;;;13.40;99.90;;;;;;7377691;19;20003;-73
2024/02/05 00:55:09;;;;;;;18.13;3.95;;;13.40;99.90;;;;;;7379457;19;20006;-74
2024/02/05 00:57:38;;;;;;;20.48;4.40;;;13.20;99.90;;;;;;7379166;19;20050;-73
2024/02/05 01:00:11;;;;;;;15.60;3.90;;;13.30;99.90;;;;;;7377941;19;20733;-74
2024/02/05 01:02:39;;;;;;;25.90;4.35;;;13.20;99.90;;;;;;7400697;19;20003;-74
2024/02/05 01:05:09;;;;;;;24.08;4.70;;;13.20;99.90;;;;;;7379551;19;20011;-74
2024/02/05 01:07:37;;;;;;;16.27;3.75;;;13.30;99.90;;;;;;7381102;19;20063;-74
2024/02/05 01:10:10;;;;;;;21.48;5.00;;;13.20;99.90;;;;;;7378596;19;20493;-74
2024/02/05 01:12:39;;;;;;;11.40;3.40;;;13.30;99.90;;;;;;7378313;19;20006;-74
2024/02/05 01:15:11;;;;;;;22.38;3.70;;;13.30;99.90;;;;;;7376415;19;20050;-74
2024/02/05 01:17:40;;;;;;;18.25;3.88;;;13.40;99.90;;;;;;7403927;19;20006;-78
2024/02/05 01:22:53;;;;;;;20.42;3.42;;;13.20;99.90;;;;;;7303403;19;20022;-76
2024/02/05 01:25:22;;;;;;;14.57;4.28;;;13.20;99.90;;;;;;7400002;19;20066;-76
2024/02/05 01:27:50;;;;;;;25.75;3.92;;;13.30;99.90;;;;;;7379768;19;20265;-76
2024/02/05 01:30:22;;;;;;;26.10;4.03;;;13.40;99.90;;;;;;7377452;19;20279;-77
2024/02/05 01:32:51;;;;;;;26.63;4.20;;;13.40;99.90;;;;;;7398543;19;20058;-76
2024/02/05 01:35:19;;;;;;;18.85;3.63;;;13.40;99.90;;;;;;7378049;19;20416;-77
2024/02/05 01:37:48;;;;;;;14.27;3.50;;;13.40;99.90;;;;;;7379862;19;20020;-77
2024/02/05 01:40:17;;;;;;;13.90;3.67;;;13.20;99.90;;;;;;7386721;19;20002;-77
2024/02/05 01:42:45;;;;;;;20.52;3.65;;;13.30;99.90;;;;;;7386546;19;20023;-77
2024/02/05 01:45:14;;;;;;;25.08;3.97;;;13.30;99.90;;;;;;7387151;19;20023;-77
2024/02/05 01:47:45;;;;;;;17.80;3.45;;;13.20;99.90;;;;;;7408824;19;20046;-76
2024/02/05 01:50:16;;;;;;;28.00;3.70;;;13.40;99.90;;;;;;7386912;19;20007;-76
2024/02/05 01:52:48;;;;;;;18.23;3.27;;;13.30;99.90;;;;;;7383304;19;20007;-76
2024/02/05 01:55:20;;;;;;;26.70;4.10;;;13.30;99.90;;;;;;7381449;19;20023;-76
2024/02/05 01:57:49;;;;;;;20.50;3.60;;;13.20;99.90;;;;;;7380478;19;20069;-76
2024/02/05 02:00:18;;;;;;;18.45;3.75;;;13.10;99.90;;;;;;7378105;19;20024;-77
2024/02/05 02:02:49;;;;;;;13.93;3.33;;;13.20;99.90;;;;;;7399790;19;20036;-77
2024/02/05 02:05:19;;;;;;;18.08;3.45;;;13.10;99.90;;;;;;7377593;19;20038;-77
2024/02/05 02:07:48;;;;;;;12.85;3.20;;;13.00;99.90;;;;;;7381184;19;20006;-77
2024/02/05 02:10:17;;;;;;;15.07;3.80;;;13.10;99.90;;;;;;7381717;19;20018;-77
2024/02/05 02:12:46;;;;;;;23.55;3.25;;;13.00;99.90;;;;;;7378739;19;20007;-77
2024/02/05 02:15:14;;;;;;;24.10;3.55;;;13.10;99.90;;;;;;7378819;19;20030;-77
2024/02/05 02:17:51;;;;;;;14.23;2.72;;;13.10;99.90;;;;;;7402171;19;20022;-78
2024/02/05 02:20:23;;;;;;;11.95;3.03;;;13.10;99.90;;;;;;7382382;19;20015;-77
2024/02/05 02:23:00;;;;;;;23.90;3.85;;;13.20;99.90;;;;;;7377268;19;20006;-77
2024/02/05 02:25:34;;;;;;;20.77;3.58;;;13.20;99.90;;;;;;7378474;19;20010;-78
2024/02/05 02:28:04;;;;;;;21.58;3.53;;;13.20;99.90;;;;;;7377847;19;20091;-76
2024/02/05 02:30:33;;;;;;;14.95;2.90;;;13.10;99.90;;;;;;7376952;19;20027;-76
2024/02/05 02:33:09;;;;;;;18.58;3.03;;;13.30;99.90;;;;;;7397554;19;20310;-76
2024/02/05 02:35:43;;;;;;;17.38;3.40;;;13.30;99.90;;;;;;7375945;19;20260;-77
2024/02/05 02:38:20;;;;;;;13.43;3.35;;;13.30;99.90;;;;;;7375906;19;20051;-76
2024/02/05 02:40:57;;;;;;;29.08;2.92;;;13.30;99.90;;;;;;7374000;19;20007;-76
2024/02/05 02:43:26;;;;;;;11.77;2.72;;;13.30;99.90;;;;;;7381133;19;20002;-76
2024/02/05 02:45:56;;;;;;;19.80;2.92;;;13.30;99.90;;;;;;7384780;19;19999;-76
2024/02/05 02:48:25;;;;;;;9.98;2.80;;;13.40;99.90;;;;;;7387472;19;20063;-76
2024/02/05 02:50:54;;;;;;;17.88;3.67;;;13.30;99.90;;;;;;7408776;19;20010;-76
2024/02/05 02:53:22;;;;;;;15.35;2.80;;;13.40;99.90;;;;;;7384027;19;20017;-76
2024/02/05 02:55:54;;;;;;;16.30;3.10;;;13.30;99.90;;;;;;7383538;19;20015;-76
2024/02/05 02:58:22;;;;;;;17.73;2.92;;;13.40;99.90;;;;;;7383706;19;20016;-76
2024/02/05 03:00:51;;;;;;;16.27;2.65;;;13.40;99.90;;;;;;7384086;19;20011;-76
2024/02/05 03:03:20;;;;;;;17.83;3.00;;;13.40;99.90;;;;;;7386694;19;20006;-76
2024/02/05 03:05:49;;;;;;;15.68;3.00;;;13.30;99.90;;;;;;7406841;19;20011;-76
2024/02/05 03:08:18;;;;;;;7.85;2.25;;;13.30;99.90;;;;;;7381863;19;20114;-76
2024/02/05 03:10:46;;;;;;;15.15;2.95;;;13.40;99.90;;;;;;7382601;19;20305;-76
2024/02/05 03:13:18;;;;;;;11.05;2.83;;;13.40;99.90;;;;;;7382676;19;20062;-76
2024/02/05 03:15:46;;;;;;;10.23;2.42;;;13.40;99.90;;;;;;7384011;19;20006;-76
2024/02/05 03:18:15;;;;;;;18.55;2.67;;;13.40;99.90;;;;;;7382646;19;20062;-76
2024/02/05 03:20:45;;;;;;;10.23;2.22;;;13.30;99.90;;;;;;7403806;19;20202;-76
2024/02/05 03:23:14;;;;;;;15.80;3.00;;;13.30;99.90;;;;;;7380833;19;20062;-77
2024/02/05 03:25:43;;;;;;;15.20;3.03;;;13.30;99.90;;;;;;7382427;19;20007;-76
2024/02/05 03:28:12;;;;;;;36.35;3.60;;;13.30;99.90;;;;;;7382377;19;20020;-77
2024/02/05 03:30:44;;;;;;;17.58;3.17;;;13.30;99.90;;;;;;7382321;19;20086;-76
2024/02/05 03:33:14;;;;;;;14.90;2.65;;;13.30;99.90;;;;;;7404359;19;20007;-76
2024/02/05 03:35:42;;;;;;;22.88;2.90;;;13.40;99.90;;;;;;7381398;19;20003;-76
2024/02/05 03:38:11;;;;;;;15.88;3.00;;;13.40;99.90;;;;;;7381657;19;20074;-76
2024/02/05 03:40:40;;;;;;;18.45;3.20;;;13.30;99.90;;;;;;7383661;19;20023;-76
2024/02/05 03:43:08;;;;;;;11.40;2.55;;;13.40;99.90;;;;;;7383934;19;20015;-76
2024/02/05 03:45:37;;;;;;;11.43;3.17;;;13.40;99.90;;;;;;7382248;19;20015;-76
2024/02/05 03:48:10;;;;;;;17.95;2.90;;;13.40;99.90;;;;;;7402930;19;20366;-77
2024/02/05 03:50:38;;;;;;;7.07;2.22;;;13.40;99.90;;;;;;7381496;19;20003;-77
2024/02/05 03:53:07;;;;;;;19.20;2.45;;;13.40;99.90;;;;;;7381639;19;20066;-76
2024/02/05 03:55:36;;;;;;;10.82;2.70;;;13.50;99.90;;;;;;7380827;19;20283;-76
2024/02/05 03:58:08;;;;;;;23.58;2.88;;;13.50;99.90;;;;;;7383363;19;20355;-77
2024/02/05 04:00:37;;;;;;;16.30;2.53;;;13.40;99.90;;;;;;7382872;19;20263;-77
2024/02/05 04:03:06;;;;;;;11.65;2.70;;;13.40;99.90;;;;;;7402763;19;20094;-77
2024/02/05 04:05:37;;;;;;;21.13;2.75;;;13.40;99.90;;;;;;7380409;19;19999;-77
2024/02/05 04:08:06;;;;;;;;;;;13.40;99.90;;;;;;7381342;19;20070;-77
2024/02/05 04:10:34;;;;;;;16.30;2.50;;;13.50;99.90;;;;;;7380926;19;19911;-76
2024/02/05 04:13:03;;;;;;;24.05;3.13;;;13.50;99.90;;;;;;7385809;19;20005;-77
2024/02/05 04:15:32;;;;;;;12.32;2.67;;;13.50;99.90;;;;;;7387478;19;20010;-77
2024/02/05 04:18:02;;;;;;;11.63;2.85;;;13.40;99.90;;;;;;7408071;19;20010;-77
2024/02/05 04:20:31;;;;;;;18.10;3.05;;;13.30;99.90;;;;;;7387620;19;20309;-77
2024/02/05 04:23:02;;;;;;;11.77;2.38;;;13.30;99.90;;;;;;7387145;19;20010;-77
2024/02/05 04:25:33;;;;;;;18.23;3.20;;;13.30;99.90;;;;;;7388458;19;20402;-77
2024/02/05 04:28:02;;;;;;;14.93;3.10;;;13.30;99.90;;;;;;7383326;19;20402;-76
2024/02/05 04:30:36;;;;;;;12.75;2.65;;;13.30;99.90;;;;;;7380992;19;20007;-76
2024/02/05 04:33:05;;;;;;;12.85;3.25;;;13.20;99.90;;;;;;7401777;19;20523;-76
2024/02/05 04:35:34;;;;;;;20.30;3.03;;;13.20;99.90;;;;;;7381030;19;20078;-76
2024/02/05 04:38:06;;;;;;;10.68;2.80;;;13.20;99.90;;;;;;7383654;19;20003;-76
2024/02/05 04:40:34;;;;;;;19.33;3.03;;;13.20;99.90;;;;;;7381518;19;20015;-77
2024/02/05 04:43:06;;;;;;;10.05;2.35;;;13.10;99.90;;;;;;7380683;19;19998;-76
2024/02/05 04:45:35;;;;;;;13.32;3.05;;;13.10;99.90;;;;;;7380526;19;20011;-76
2024/02/05 04:48:05;;;;;;;21.85;3.80;;;13.00;99.90;;;;;;7401945;19;20028;-75
2024/02/05 04:50:33;;;;;;;12.80;2.60;;;13.10;99.90;;;;;;7382300;19;20010;-75
2024/02/05 04:53:05;;;;;;;10.80;3.17;;;13.20;99.90;;;;;;7380590;19;20067;-75
2024/02/05 04:55:33;;;;;;;13.40;2.78;;;13.10;99.90;;;;;;7378701;19;20010;-77
2024/02/05 04:58:03;;;;;;;8.95;2.70;;;13.10;99.90;;;;;;7379396;19;20007;-77
2024/02/05 05:00:31;;;;;;;13.90;2.63;;;13.20;99.90;;;;;;7379180;19;20029;-76
2024/02/05 05:03:00;;;;;;;13.40;2.70;;;13.20;99.90;;;;;;7400921;19;20055;-77
2024/02/05 05:05:31;;;;;;;13.27;2.53;;;13.10;99.90;;;;;;7378205;19;20103;-77
2024/02/05 05:08:00;;;;;;;11.93;3.15;;;13.10;99.90;;;;;;7380417;19;20027;-78
2024/02/05 05:10:31;;;;;;;18.25;3.15;;;13.10;99.90;;;;;;7379108;19;20393;-77
2024/02/05 05:13:03;;;;;;;8.95;2.88;;;13.10;99.90;;;;;;7379791;19;20082;-78
2024/02/05 05:15:32;;;;;;;12.90;2.70;;;13.20;99.90;;;;;;7381251;19;20014;-78
2024/02/05 05:18:00;;;;;;;9.25;2.67;;;13.20;99.90;;;;;;7401222;19;20286;-78
2024/02/05 05:20:29;;;;;;;13.50;3.53;;;13.30;99.90;;;;;;7384094;19;20011;-78
2024/02/05 05:22:58;;;;;;;13.70;2.92;;;13.30;99.90;;;;;;7380991;19;20014;-77
2024/02/05 05:25:27;;;;;;;14.98;2.70;;;13.30;99.90;;;;;;7381713;19;20007;-77
2024/02/05 05:27:58;;;;;;;14.13;2.85;;;13.10;99.90;;;;;;7380376;19;20295;-76
2024/02/05 05:30:29;;;;;;;14.10;2.35;;;13.00;99.90;;;;;;7381997;19;20108;-77
2024/02/05 05:32:58;;;;;;;9.20;2.47;;;13.10;99.90;;;;;;7402661;19;20263;-77
2024/02/05 05:35:28;;;;;;;18.27;2.88;;;13.20;99.90;;;;;;7376748;19;20078;-77
2024/02/05 05:37:56;;;;;;;14.48;2.70;;;13.20;99.90;;;;;;7376572;19;20413;-77
2024/02/05 05:40:25;;;;;;;11.60;2.80;;;13.20;99.90;;;;;;7378601;19;20007;-77
2024/02/05 05:42:54;;;;;;;6.45;2.50;;;13.20;99.90;;;;;;7379332;19;20579;-77
2024/02/05 05:45:27;;;;;;;14.75;2.80;;;13.20;99.90;;;;;;7401172;19;20003;-77
2024/02/05 05:47:55;;;;;;;6.57;2.75;;;13.20;99.90;;;;;;7378514;19;20024;-77
2024/02/05 05:50:24;;;;;;;13.63;3.03;;;13.20;99.90;;;;;;7377980;19;20010;-78
2024/02/05 05:52:54;;;;;;;8.60;2.97;;;12.90;99.90;;;;;;7379856;19;20073;-77
2024/02/05 05:55:23;;;;;;;19.70;2.78;;;12.90;99.90;;;;;;7378958;19;20003;-77
2024/02/05 05:57:52;;;;;;;13.40;3.17;;;12.90;99.90;;;;;;7378482;19;20068;-76
2024/02/05 06:00:25;;;;;;;14.88;2.88;;;12.90;99.90;;;;;;7397204;19;20007;-76
2024/02/05 06:02:55;;;;;;;16.05;3.00;;;12.90;99.90;;;;;;7376902;19;20346;-76
2024/02/05 06:05:24;;;;;;;8.38;2.97;;;12.80;99.90;;;;;;7376825;19;20003;-77
2024/02/05 06:07:53;;;;;;;14.25;2.90;;;12.80;99.90;;;;;;7377019;19;20023;-76
2024/02/05 06:10:21;;;;;;;11.38;3.17;;;12.60;99.90;;;;;;7377015;19;20669;-77
2024/02/05 06:12:50;;;;;;;13.73;3.05;;;12.80;99.90;;;;;;7378400;19;20037;-76
2024/02/05 06:15:19;;;;;;;7.13;3.08;;;13.00;99.90;;;;;;7399010;19;20071;-77
2024/02/05 06:17:50;;;;;;;12.75;3.15;;;13.00;99.90;;;;;;7379135;19;20382;-77
2024/02/05 06:20:19;;;;;;;10.35;3.42;;;12.90;99.90;;;;;;7384214;19;20044;-77
2024/02/05 06:22:47;;;;;;;11.70;3.22;;;13.00;99.90;;;;;;7387133;19;20014;-76
2024/02/05 06:25:16;;;;;;;14.80;3.83;;;12.60;99.90;;;;;;7388246;19;20007;-77
2024/02/05 06:27:45;;;;;;;14.55;3.92;;;12.70;99.90;;;;;;7383395;19;20011;-77
2024/02/05 06:30:15;;;;;;;11.77;3.50;;;12.60;99.90;;;;;;7405459;19;20024;-77
2024/02/05 06:32:45;;;;;;;13.35;3.95;;;12.70;99.90;;;;;;7383276;19;20011;-76
2024/02/05 06:35:16;;;;;;;14.27;4.15;;;12.70;99.90;;;;;;7384978;19;20020;-77
2024/02/05 06:37:45;;;;;;;;;;;12.70;99.90;;;;;;7387426;19;20006;-77
2024/02/05 06:40:17;;;;;;;17.67;3.53;;;12.90;99.90;;;;;;7385718;19;19936;-77
2024/02/05 06:42:46;;;;;;;13.18;4.10;;;12.90;99.90;;;;;;7383903;19;20014;-77
2024/02/05 06:45:15;;;;;;;19.02;4.45;;;13.00;99.90;;;;;;7406130;19;20039;-77
2024/02/05 06:47:44;;;;;;;29.42;4.18;;;13.00;99.90;;;;;;7383537;19;20009;-77
2024/02/05 06:50:15;;;;;;;19.95;3.50;;;12.80;99.90;;;;;;7392154;19;20015;-77
2024/02/05 06:52:45;;;;;;;15.60;4.05;;;12.80;99.90;;;;;;7404347;19;20002;-77
2024/02/05 06:55:14;;;;;;;25.88;3.92;;;12.80;99.90;;;;;;7395082;19;20291;-77
2024/02/05 06:57:42;;;;;;;14.15;4.15;;;12.90;99.90;;;;;;7392602;19;20023;-78
2024/02/05 07:00:12;;;;;;;19.70;4.53;;;12.90;99.90;;;;;;7412676;19;20011;-77
2024/02/05 07:02:41;;;;;;;17.23;3.88;;;12.90;99.90;;;;;;7383201;19;20003;-78
2024/02/05 07:05:14;;;;;;;21.25;4.57;;;13.00;99.90;;;;;;7383367;19;20003;-76
2024/02/05 07:07:45;;;;;;;26.17;4.82;;;12.90;99.90;;;;;;7383904;19;20002;-77
2024/02/05 07:10:14;;;;;;;12.25;4.63;;;12.80;99.90;;;;;;7381842;19;20006;-77
2024/02/05 07:12:43;;;;;;;24.67;4.28;;;12.60;99.90;;;;;;7383692;19;20015;-77
2024/02/05 07:15:12;;;;;;;15.27;4.30;;;12.70;99.90;;;;;;7406232;19;20003;-77
2024/02/05 07:17:43;;;;;;;16.60;4.90;;;12.70;99.90;;;;;;7385661;19;20019;-77
2024/02/05 07:20:12;;;;;;;20.85;4.55;;;12.80;99.90;;;;;;7384923;19;20102;-77
2024/02/05 07:22:41;;;;;;;17.85;4.40;;;12.80;99.90;;;;;;7383080;19;20027;-76
2024/02/05 07:25:13;;;;;;;18.90;4.40;;;12.90;99.90;;;;;;7382437;19;20006;-78
2024/02/05 07:27:42;;;;;;;14.60;4.30;;;12.80;99.90;;;;;;7384380;19;20006;-77
2024/02/05 07:30:11;;;;;;;23.17;4.55;;;12.80;99.90;;;;;;7402105;19;20070;-77
2024/02/05 07:32:40;;;;;;;21.60;4.55;;;12.80;99.90;;;;;;7385046;19;20500;-77
2024/02/05 07:35:09;;;;;;;19.23;4.05;;;12.70;99.90;;;;;;7381358;19;20080;-77
2024/02/05 07:37:38;;;;;;;12.65;3.50;;;12.80;99.90;;;;;;7381651;19;20350;-77
2024/02/05 07:40:08;;;;;;;24.65;5.07;;;12.80;99.90;;;;;;7382819;19;20023;-77
2024/02/05 07:42:41;;;;;;;26.90;5.65;;;12.90;99.90;;;;;;7400718;19;20019;-77
2024/02/05 07:45:11;;;;;;;20.25;4.20;;;12.60;99.90;;;;;;7381942;19;20292;-75
2024/02/05 07:47:39;;;;;;;18.90;4.32;;;12.80;99.90;;;;;;7381250;19;20281;-79
2024/02/05 07:50:10;;;;;;;22.23;5.30;;;12.80;99.90;;;;;;7381735;19;20064;-76
2024/02/05 07:52:38;;;;;;;16.90;4.95;;;12.80;99.90;;;;;;7380468;19;20010;-75
2024/02/05 07:55:08;;;;;;;17.52;4.78;;;12.80;99.90;;;;;;7381039;19;20006;-76
2024/02/05 07:57:40;;;;;;;18.13;5.10;;;12.80;99.90;;;;;;7405674;19;20046;-74
2024/02/05 08:00:11;;;;;;;19.42;4.13;;;12.70;99.90;;;;;;7380612;19;20086;-74
2024/02/05 08:02:40;;;;;;;24.85;5.40;;;12.70;99.90;;;;;;7380373;19;20006;-74
2024/02/05 08:05:09;;;;;;;22.02;5.38;;;12.70;99.90;;;;;;7381573;19;20364;-76
2024/02/05 08:07:38;;;;;;;22.15;5.00;;;12.60;99.90;;;;;;7382806;19;20007;-74
2024/02/05 08:10:07;;;;;;;24.63;5.82;;;12.80;99.90;;;;;;7383156;19;20376;-75
2024/02/05 08:12:36;;;;;;;21.73;5.00;;;12.80;99.90;;;;;;7404135;19;20018;-75
2024/02/05 08:15:09;;;;;;;21.98;5.18;;;12.80;99.90;;;;;;7379631;19;20110;-75
2024/02/05 08:17:38;;;;;;;20.63;6.40;;;12.60;99.90;;;;;;7380298;19;20076;-75
2024/02/05 08:20:08;;;;;;;16.63;5.25;;;12.40;99.90;;;;;;7381219;19;20006;-76
2024/02/05 08:22:37;;;;;;;20.95;5.30;;;12.30;99.90;;;;;;7381927;19;20053;-76
2024/02/05 08:25:06;;;;;;;28.75;4.93;;;12.50;99.90;;;;;;7385518;19;20063;-76
2024/02/05 08:27:37;;;;;;;24.70;5.07;;;12.40;99.90;;;;;;7403010;19;20019;-76
2024/02/05 08:30:10;;;;;;;35.75;5.95;;;12.50;99.90;;;;;;7379430;19;20377;-76
2024/02/05 08:32:41;;;;;;;20.45;5.32;;;12.40;99.90;;;;;;7379738;19;20013;-75
2024/02/05 08:35:12;;;;;;;29.60;5.75;;;12.40;99.90;;;;;;7380409;19;20007;-75
2024/02/05 08:37:41;;;;;;;;;;;12.50;99.90;;;;;;7381050;19;20016;-77
2024/02/05 08:40:11;;;;;;;24.88;6.20;;;12.60;99.90;;;;;;7379935;19;19912;-78
2024/02/05 08:42:41;;;;;;;31.42;6.68;;;12.70;99.90;;;;;;7402418;19;20024;-77
2024/02/05 08:45:14;;;;;;;30.13;7.15;;;12.70;99.90;;;;;;7380151;19;20003;-78
2024/02/05 08:47:42;;;;;;;36.00;6.70;;;12.60;99.90;;;;;;7380479;19;20015;-77
2024/02/05 08:50:12;;;;;;;25.67;5.90;;;12.60;99.90;;;;;;7380699;19;20060;-76
2024/02/05 08:52:40;;;;;;;27.92;6.03;;;12.50;99.90;;;;;;7381266;19;20024;-75
2024/02/05 08:55:11;;;;;;;35.53;6.10;;;12.30;99.90;;;;;;7379560;19;20066;-76
2024/02/05 08:57:40;;;;;;;25.88;6.47;;;12.30;99.90;;;;;;7401130;19;20013;-75
2024/02/05 09:00:13;;;;;;;23.95;6.30;;;12.50;99.90;;;;;;7379722;19;20688;-77
2024/02/05 09:02:44;;;;;;;23.70;7.85;;;12.50;99.90;;;;;;7381343;19;20056;-76
2024/02/05 09:05:15;;;;;;;31.88;7.50;;;12.60;99.90;;;;;;7382594;19;20031;-76
2024/02/05 09:07:44;;;;;;;35.22;6.47;;;12.60;99.90;;;;;;7381341;19;20068;-76
2024/02/05 09:10:12;;;;;;;27.17;7.20;;;12.70;99.90;;;;;;7380122;19;20064;-76
2024/02/05 09:12:41;;;;;;;35.85;8.25;;;12.80;99.90;;;;;;7401028;19;20006;-76
2024/02/05 09:15:14;;;;;;;28.27;7.10;;;12.80;99.90;;;;;;7378880;19;20008;-75
2024/02/05 09:17:43;;;;;;;38.72;7.53;;;12.90;99.90;;;;;;7381938;19;20010;-76
2024/02/05 09:20:12;;;;;;;27.48;7.50;;;12.90;99.90;;;;;;7382779;19;20003;-77
2024/02/05 09:22:47;;;;;;;28.48;7.35;;;13.00;99.90;;;;;;7379497;19;20029;-77
2024/02/05 09:25:16;;;;;;;44.17;8.63;;;13.00;99.90;;;;;;7384789;19;20010;-76
2024/02/05 09:27:45;;;;;;;35.20;8.25;;;12.80;99.90;;;;;;7408464;19;20015;-77
2024/02/05 09:30:16;;;;;;;34.80;7.88;;;12.70;99.90;;;;;;7382939;19;20069;-75
2024/02/05 09:32:45;;;;;;;;;;;12.80;99.90;;;;;;7384657;19;20010;-74
2024/02/05 09:35:14;;;;;;;29.20;7.10;;;12.70;99.90;;;;;;7384455;19;20151;-76
2024/02/05 09:37:43;;;;;;;39.47;8.90;;;12.70;99.90;;;;;;7383533;19;20394;-75
2024/02/05 09:40:12;;;;;;;34.55;9.50;;;12.50;99.90;;;;;;7377596;19;20010;-73
2024/02/05 09:42:41;;;;;;;29.30;7.85;;;12.50;99.90;;;;;;7399489;19;20007;-73
2024/02/05 09:45:16;;;;;;;37.45;8.93;;;12.50;99.90;;;;;;7377957;19;20003;-74
2024/02/05 09:47:46;;;;;;;41.90;9.88;;;12.30;99.90;;;;;;7377702;19;20007;-73
2024/02/05 09:50:16;;;;;;;40.58;9.30;;;12.40;99.90;;;;;;7379066;19;20109;-76
2024/02/05 09:52:47;;;;;;;31.00;9.18;;;12.50;99.90;;;;;;7377317;19;20070;-74
2024/02/05 09:55:17;;;;;;;41.10;9.25;;;12.50;99.90;;;;;;7379904;19;20000;-74
2024/02/05 09:57:49;;;;;;;40.65;9.13;;;12.60;99.90;;;;;;7400209;19;20318;-74
2024/02/05 10:00:21;;;;;;;39.35;9.27;;;12.60;99.90;;;;;;7379054;19;20015;-76
2024/02/05 10:02:51;;;;;;;36.05;8.60;;;12.50;99.90;;;;;;7380163;19;20047;-77
2024/02/05 10:05:23;;;;;;;43.80;8.43;;;12.50;99.90;;;;;;7378545;19;20007;-75
2024/02/05 10:07:55;;;;;;;35.20;9.13;;;12.50;99.90;;;;;;7378430;19;20035;-76
2024/02/05 10:10:24;;;;;;;35.45;7.95;;;12.50;99.90;;;;;;7377980;19;20074;-75
2024/02/05 10:12:56;;;;;;;39.88;8.25;;;12.50;99.90;;;;;;7401848;19;20104;-77
2024/02/05 10:15:27;;;;;;;;;;;12.50;99.90;;;;;;7381771;19;20007;-77
2024/02/05 10:17:57;;;;;;;49.65;8.13;;;12.60;99.90;;;;;;7378170;19;19983;-76
2024/02/05 10:20:33;;;;;;;34.55;8.15;;;12.70;99.90;;;;;;7377070;19;20002;-74
2024/02/05 10:23:01;;;;;;;32.65;8.02;;;12.90;99.90;;;;;;7376126;19;20381;-75
2024/02/05 10:25:30;;;;;;;31.77;8.05;;;13.00;99.90;;;;;;7377208;19;20002;-74
2024/02/05 10:28:03;;;;;;;41.63;8.90;;;12.80;99.90;;;;;;7398398;19;20019;-74
2024/02/05 10:30:34;;;;;;;32.30;7.72;;;12.80;99.90;;;;;;7376460;19;20006;-75
2024/02/05 10:33:04;;;;;;;30.52;7.85;;;12.70;99.90;;;;;;7376363;19;20010;-77
2024/02/05 10:35:32;;;;;;;41.92;8.32;;;12.90;99.90;;;;;;7377088;19;20010;-76
2024/02/05 10:38:10;;;;;;;28.77;8.57;;;12.80;99.90;;;;;;7376943;19;20020;-75
2024/02/05 10:40:40;;;;;;;37.80;7.55;;;12.90;99.90;;;;;;7376383;19;20396;-76
2024/02/05 10:43:10;;;;;;;36.40;7.88;;;12.70;99.90;;;;;;7376664;19;20018;-76
2024/02/05 10:45:41;;;;;;;36.53;8.25;;;12.60;99.90;;;;;;7400269;19;20031;-76
2024/02/05 10:48:10;;;;;;;48.13;9.40;;;12.80;99.90;;;;;;7376580;19;19998;-76
2024/02/05 10:50:39;;;;;;;42.80;8.40;;;12.70;99.90;;;;;;7377853;19;20110;-75
2024/02/05 10:53:08;;;;;;;31.92;7.88;;;12.50;99.90;;;;;;7376602;19;20014;-76
2024/02/05 10:55:40;;;;;;;42.78;8.25;;;12.70;99.90;;;;;;7377508;19;20070;-76
2024/02/05 10:58:10;;;;;;;35.90;7.97;;;12.50;99.90;;;;;;7379219;19;20032;-76
2024/02/05 11:00:41;;;;;;;40.95;8.70;;;12.50;99.90;;;;;;7398689;19;20078;-77
2024/02/05 11:03:12;;;;;;;;;;;12.50;99.90;;;;;;7378124;19;20066;-75
2024/02/05 11:05:44;;;;;;;34.22;8.15;;;12.50;99.90;;;;;;7386197;19;19907;-77
2024/02/05 11:08:18;;;;;;;29.50;8.63;;;12.60;99.90;;;;;;7386976;19;20010;-75
2024/02/05 11:10:49;;;;;;;47.42;9.00;;;12.50;99.90;;;;;;7386321;19;20014;-77
2024/02/05 11:13:22;;;;;;;38.58;9.00;;;12.70;99.90;;;;;;7386756;19;20039;-75
2024/02/05 11:15:55;;;;;;;45.60;8.40;;;12.50;99.90;;;;;;7404107;19;20058;-75
2024/02/05 11:18:29;;;;;;;27.23;7.30;;;12.30;99.90;;;;;;7381905;19;20070;-75
2024/02/05 11:21:00;;;;;;;47.72;7.90;;;12.50;99.90;;;;;;7382359;19;20255;-76
2024/02/05 11:23:31;;;;;;;32.95;7.60;;;12.50;99.90;;;;;;7381663;19;20358;-75
2024/02/05 11:26:00;;;;;;;31.80;8.03;;;12.40;99.90;;;;;;7383026;19;20007;-76
2024/02/05 11:28:30;;;;;;;32.53;8.25;;;12.40;99.90;;;;;;7383098;19;20415;-76
2024/02/05 11:31:07;;;;;;;41.25;9.15;;;12.50;99.90;;;;;;7404836;19;20020;-76
2024/02/05 11:33:40;;;;;;;33.53;8.45;;;12.70;99.90;;;;;;7381615;19;20028;-76
2024/02/05 11:36:13;;;;;;;39.22;8.77;;;12.80;99.90;;;;;;7382030;19;20236;-72
2024/02/05 11:38:42;;;;;;;53.03;8.45;;;12.80;99.90;;;;;;7382638;19;20003;-75
2024/02/05 11:41:12;;;;;;;32.30;7.95;;;12.90;99.90;;;;;;7383096;19;20003;-77
2024/02/05 11:43:41;;;;;;;32.80;8.15;;;12.80;99.90;;;;;;7383230;19;20003;-77
2024/02/05 11:46:13;;;;;;;50.42;8.82;;;13.00;99.90;;;;;;7405975;19;20014;-77
2024/02/05 11:48:42;;;;;;;34.42;8.98;;;13.00;99.90;;;;;;7383317;19;20002;-77
2024/02/05 11:51:12;;;;;;;40.60;9.02;;;12.90;99.90;;;;;;7385815;19;20055;-76
2024/02/05 11:53:47;;;;;;;33.80;9.02;;;13.10;99.90;;;;;;7387460;19;20009;-77
2024/02/05 11:56:16;;;;;;;42.13;7.75;;;13.10;99.90;;;;;;7385146;19;20319;-77
2024/02/05 11:58:49;;;;;;;29.55;7.93;;;13.20;99.90;;;;;;7386258;19;20033;-76
2024/02/05 12:01:21;;;;;;;30.00;8.35;;;13.30;99.90;;;;;;7388579;19;20011;-77
2024/02/05 12:03:51;;;;;;;44.28;9.27;;;12.80;99.90;;;;;;7404907;19;20010;-74
2024/02/05 12:06:20;;;;;;;36.05;8.70;;;12.80;99.90;;;;;;7386399;19;20227;-74
2024/02/05 12:08:49;;;;;;;38.55;8.50;;;12.50;99.90;;;;;;7389172;19;19999;-74
2024/02/05 12:11:19;;;;;;;41.10;8.82;;;12.60;99.90;;;;;;7389492;19;20003;-76
2024/02/05 12:13:59;;;;;;;47.35;10.13;;;12.60;99.90;;;;;;7390043;19;20023;-76
2024/02/05 12:16:32;;;;;;;47.60;8.70;;;12.60;99.90;;;;;;7386267;19;19999;-76
2024/02/05 12:19:01;;;;;;;46.38;9.65;;;12.70;99.90;;;;;;7414286;19;20021;-76
2024/02/05 12:21:31;;;;;;;36.72;8.10;;;12.90;99.90;;;;;;7387669;19;20070;-77
2024/02/05 12:24:00;;;;;;;36.13;8.65;;;12.90;99.90;;;;;;7381712;19;20011;-76
2024/02/05 12:26:29;;;;;;;37.65;9.23;;;13.00;99.90;;;;;;7381387;19;20096;-76
2024/02/05 12:28:58;;;;;;;35.17;8.90;;;13.00;99.90;;;;;;7381369;19;20109;-74
2024/02/05 12:31:26;;;;;;;47.63;9.63;;;12.90;99.90;;;;;;7384119;19;20311;-75
2024/02/05 12:34:00;;;;;;;30.85;8.82;;;12.90;99.90;;;;;;7406706;19;20023;-74
2024/02/05 12:36:36;;;;;;;36.80;8.60;;;12.80;99.90;;;;;;7382452;19;20086;-74
2024/02/05 12:39:05;;;;;;;38.97;8.82;;;12.90;99.90;;;;;;7382794;19;20074;-74
2024/02/05 12:41:35;;;;;;;50.08;9.07;;;12.70;99.90;;;;;;7382511;19;20078;-76
2024/02/05 12:44:06;;;;;;;36.10;8.77;;;13.00;99.90;;;;;;7381167;19;20066;-76
2024/02/05 12:46:36;;;;;;;;;;;13.00;99.90;;;;;;7382266;19;20002;-75
2024/02/05 12:49:07;;;;;;;30.83;8.60;;;13.00;99.90;;;;;;7405769;19;19966;-75
2024/02/05 12:51:36;;;;;;;;;;;13.20;99.90;;;;;;7381359;19;20019;-74
2024/02/05 12:54:05;;;;;;;28.25;7.75;;;12.90;99.90;;;;;;7379451;19;19955;-77
2024/02/05 12:56:33;;;;;;;38.40;9.00;;;12.90;99.90;;;;;;7380357;19;20016;-77